Jefferson, NC

4:33 PM EDT on September 02, 2014 (GMT -0400)
Downtown West Jefferson | Change Station
CLOSE
Current Station
Personal Weather Station
Location: West Jefferson, NC
Elevation: 2982 ft
Nearby Weather Stations

Elev 2982 ft 36.40 °N, 81.49 °W | Updated 3 minutes ago

Scattered Clouds
Scattered Clouds
83.2 °F
Feels Like 85 °F
N
6.0
Wind Variable Wind from SE
Gusts 10.0 mph

Today
High -- | Low -- °F
--% Chance of Precip.
Yesterday
High -- | Low -- °F
Precip. -- in
6:57 AM 7:52 PM
First Quarter, 54% visible
Pressure 30.14 in
Visibility 10.0 miles
Clouds Scattered Clouds 4600 ft
Scattered Clouds 6000 ft
Scattered Clouds 6500 ft
Heat Index 85 °F
Dew Point 65 °F
Humidity 55%
Rainfall 0.00 in
Snow Depth Not available.
UV 5 out of 12
Pollen 9.40 out of 12
Air Quality Not available.
Flu Activity Not available.
METAR KGEV 022015Z AUTO 14003KT 10SM SCT046 SCT060 SCT065 24/19 A3014 RMK AO2 T02440187

More Conditions Fewer Conditions

Pressure 30.14 in
Visibility 10.0 miles
Clouds Scattered Clouds 4600 ft
Scattered Clouds 6000 ft
Scattered Clouds 6500 ft
Heat Index 85 °F
Dew Point 65 °F
Humidity 55%
Rainfall 0.00 in
Snow Depth Not available.
UV 5 out of 12
Pollen 9.40 out of 12
Air Quality Not available.
Flu Activity Not available.
METAR KGEV 022015Z AUTO 14003KT 10SM SCT046 SCT060 SCT065 24/19 A3014 RMK AO2 T02440187

More Conditions Fewer Conditions

10-Day Weather Forecast

Almanac

Astronomy

Sep. 02, 2014 Rise Set
Actual Time 6:57 AM EDT 7:52 PM EDT
Civil Twilight 6:31 AM EDT 8:18 PM EDT
Nautical Twilight 6:00 AM EDT 8:49 PM EDT
Astronomical Twilight 5:28 AM EDT 9:21 PM EDT
Moon 2:28 PM EDT 12:05 AM EDT
Length of Visible Light 13h 46m
Length of Day
12h 54m
Tomorrow will be 2m 13s shorter.
First Quarter, 54% of the Moon is Illuminated
Today
First Quarter
Sep 8
Full
Sep 15
Last Quarter
Sep 24
New
Oct 1
First Quarter

Today's Extremes

State Highs State Lows

Community

WunderPhotos

Upload Photos

1,749,754 photos uploaded!

WunderBlogs® & News

By Dr. Jeff Masters
Director of Meteorology, Weather Underground
By Kari Strenfel
Meteorologist, Weather Underground
By Christopher C. Burt
Weather Historian, Weather Underground
September 2, 2014
September 2, 2014
September 2, 2014

Nearby

Snow Depth

Station Depth Elevation
No new snow has been reported.

Earthquake Activity

City Distance Mag. Time & Date
No recent earthquake activity has been reported nearby.
Minimum magnitude displayed is 2.5.

Coastal Water Temperatures

Place Temperature
No Stations Reporting

Nearby Weather Stations